Time,TemperatureF,DewpointF,PressureIn,WindDirection,WindDirectionDegrees,WindSpeedMPH,WindSpeedGustMPH,Humidity,HourlyPrecipIn,Conditions,Clouds,dailyrainin,SoftwareType,DateUTC
2013-02-17 00:30:00,29.7,17.1,29.98,East,83,0.0,25.0,59,0.00,,,0.00,Wunderground v.1.15,2013-02-17 08:30:00,
2013-02-17 01:00:00,30.4,18.5,29.98,East,87,1.0,1.0,61,0.00,,,0.00,Wunderground v.1.15,2013-02-17 09:00:00,
2013-02-17 01:30:00,29.9,19.9,29.98,East,97,1.0,25.0,66,0.00,,,0.00,Wunderground v.1.15,2013-02-17 09:30:00,
2013-02-17 02:00:00,29.2,19.9,29.96,East,86,1.0,25.0,68,0.00,,,0.00,Wunderground v.1.15,2013-02-17 10:00:00,
2013-02-17 02:30:00,29.2,17.8,29.95,NNE,27,0.0,25.0,62,0.00,,,0.00,Wunderground v.1.15,2013-02-17 10:30:00,
2013-02-17 03:00:00,29.4,20.1,29.95,ENE,72,0.0,25.0,68,0.00,,,0.00,Wunderground v.1.15,2013-02-17 11:00:00,
2013-02-17 03:30:00,29.1,19.8,29.95,ENE,78,1.0,25.0,68,0.00,,,0.00,Wunderground v.1.15,2013-02-17 11:30:00,
2013-02-17 04:00:00,29.0,19.8,29.94,East,83,1.0,1.0,68,0.00,,,0.00,Wunderground v.1.15,2013-02-17 12:00:00,
2013-02-17 04:30:00,29.0,19.1,29.95,East,94,0.0,25.0,66,0.00,,,0.00,Wunderground v.1.15,2013-02-17 12:30:00,
2013-02-17 05:00:00,28.1,18.5,29.95,East,94,0.0,25.0,67,0.00,,,0.00,Wunderground v.1.15,2013-02-17 13:00:00,
2013-02-17 05:30:00,27.1,17.6,29.97,East,93,0.0,25.0,67,0.00,,,0.00,Wunderground v.1.15,2013-02-17 13:30:00,
2013-02-17 06:00:00,26.4,17.3,29.98,East,86,0.0,25.0,68,0.00,,,0.00,Wunderground v.1.15,2013-02-17 14:00:00,
2013-02-17 06:30:00,25.8,17.0,29.98,East,86,0.0,25.0,69,0.00,,,0.00,Wunderground v.1.15,2013-02-17 14:30:00,
2013-02-17 07:00:00,26.7,17.9,29.98,East,85,0.0,25.0,69,0.00,,,0.00,Wunderground v.1.15,2013-02-17 15:00:00,
2013-02-17 07:30:00,32.2,21.7,29.99,East,87,0.0,25.0,65,0.00,,,0.00,Wunderground v.1.15,2013-02-17 15:30:00,
2013-02-17 08:00:00,39.1,24.3,29.99,East,86,0.0,25.0,55,0.00,,,0.00,Wunderground v.1.15,2013-02-17 16:00:00,
2013-02-17 08:30:00,48.3,25.1,29.99,NW,322,0.0,25.0,40,0.00,,,0.00,Wunderground v.1.15,2013-02-17 16:30:00,
2013-02-17 09:00:00,52.3,16.5,30.00,WNW,303,1.0,25.0,24,0.00,,,0.00,Wunderground v.1.15,2013-02-17 17:00:00,
2013-02-17 09:30:00,53.1,15.2,29.99,WNW,295,3.0,3.0,22,0.00,,,0.00,Wunderground v.1.15,2013-02-17 17:30:00,
2013-02-17 10:00:00,54.1,15.0,30.00,NNW,338,4.0,4.0,21,0.00,,,0.00,Wunderground v.1.15,2013-02-17 18:00:00,
2013-02-17 10:30:00,54.7,15.5,29.99,WNW,303,4.0,4.0,21,0.00,,,0.00,Wunderground v.1.15,2013-02-17 18:30:00,
2013-02-17 10:40:00,54.5,16.4,30.00,NW,315,4.0,-999.0,22,0.00,,,0.00,Wunderground v.1.15,2013-02-17 18:40:00,
2013-02-17 10:45:00,54.2,18.1,29.99,NW,315,4.0,-999.0,24,0.00,,,0.00,Wunderground v.1.15,2013-02-17 18:45:00,
2013-02-17 10:50:00,54.2,18.1,29.99,NW,315,4.0,-999.0,24,0.00,,,0.00,Wunderground v.1.15,2013-02-17 18:50:00,
2013-02-17 10:55:00,53.8,19.7,30.00,NW,315,4.0,-999.0,26,0.00,,,0.00,Wunderground v.1.15,2013-02-17 18:55:00,
2013-02-17 11:00:00,53.9,19.8,30.00,WNW,299,4.0,25.0,26,0.00,,,0.00,Wunderground v.1.15,2013-02-17 19:00:00,
2013-02-17 11:05:00,54.5,22.0,29.99,WNW,293,3.0,-999.0,28,0.00,,,0.00,Wunderground v.1.15,2013-02-17 19:05:00,
2013-02-17 11:10:00,54.5,22.0,29.99,WNW,293,3.0,-999.0,28,0.00,,,0.00,Wunderground v.1.15,2013-02-17 19:10:00,
2013-02-17 11:15:00,55.2,21.8,30.00,WNW,293,2.0,-999.0,27,0.00,,,0.00,Wunderground v.1.15,2013-02-17 19:15:00,
2013-02-17 11:20:00,55.2,21.8,30.00,WNW,293,2.0,-999.0,27,0.00,,,0.00,Wunderground v.1.15,2013-02-17 19:20:00,
2013-02-17 11:25:00,54.7,21.3,29.99,NW,315,3.0,-999.0,27,0.00,,,0.00,Wunderground v.1.15,2013-02-17 19:25:00,
2013-02-17 11:30:00,54.6,20.4,29.99,WNW,295,3.0,25.0,26,0.00,,,0.00,Wunderground v.1.15,2013-02-17 19:30:00,
2013-02-17 11:35:00,54.7,21.3,29.99,WNW,293,3.0,-999.0,27,0.00,,,0.00,Wunderground v.1.15,2013-02-17 19:35:00,
2013-02-17 11:40:00,54.7,21.3,29.99,WNW,293,3.0,-999.0,27,0.00,,,0.00,Wunderground v.1.15,2013-02-17 19:40:00,
2013-02-17 11:45:00,54.8,19.6,29.99,NW,315,3.0,-999.0,25,0.00,,,0.00,Wunderground v.1.15,2013-02-17 19:45:00,
2013-02-17 11:50:00,54.8,19.6,29.99,NW,315,3.0,-999.0,25,0.00,,,0.00,Wunderground v.1.15,2013-02-17 19:50:00,
2013-02-17 11:55:00,54.6,20.4,29.99,NW,315,4.0,-999.0,26,0.00,,,0.00,Wunderground v.1.15,2013-02-17 19:55:00,
2013-02-17 12:00:00,54.6,19.4,29.99,NW,314,4.0,25.0,25,0.00,,,0.00,Wunderground v.1.15,2013-02-17 20:00:00,
2013-02-17 12:05:00,54.9,17.7,29.98,WNW,293,3.0,-999.0,23,0.00,,,0.00,Wunderground v.1.15,2013-02-17 20:05:00,
2013-02-17 12:10:00,54.9,17.7,29.98,WNW,293,3.0,-999.0,23,0.00,,,0.00,Wunderground v.1.15,2013-02-17 20:10:00,
2013-02-17 12:15:00,55.1,17.9,29.98,NW,315,4.0,-999.0,23,0.00,,,0.00,Wunderground v.1.15,2013-02-17 20:15:00,
2013-02-17 12:20:00,55.1,17.9,29.98,NW,315,4.0,-999.0,23,0.00,,,0.00,Wunderground v.1.15,2013-02-17 20:20:00,
2013-02-17 12:25:00,54.6,18.5,29.98,WNW,293,6.0,-999.0,24,0.00,,,0.00,Wunderground v.1.15,2013-02-17 20:25:00,
2013-02-17 12:30:00,54.6,18.5,29.98,WNW,288,6.0,25.0,24,0.00,,,0.00,Wunderground v.1.15,2013-02-17 20:30:00,
2013-02-17 12:35:00,55.3,18.1,29.98,NW,315,4.0,-999.0,23,0.00,,,0.00,Wunderground v.1.15,2013-02-17 20:35:00,
2013-02-17 12:40:00,55.3,18.1,29.98,NW,315,4.0,-999.0,23,0.00,,,0.00,Wunderground v.1.15,2013-02-17 20:40:00,
2013-02-17 12:45:00,54.7,18.6,29.97,NW,315,5.0,-999.0,24,0.00,,,0.00,Wunderground v.1.15,2013-02-17 20:45:00,
2013-02-17 12:50:00,54.7,18.6,29.97,NW,315,5.0,-999.0,24,0.00,,,0.00,Wunderground v.1.15,2013-02-17 20:50:00,
2013-02-17 12:55:00,55.7,19.4,29.97,WNW,293,4.0,-999.0,24,0.00,,,0.00,Wunderground v.1.15,2013-02-17 20:55:00,
2013-02-17 12:59:00,55.8,18.5,29.97,NW,314,4.0,4.0,23,0.00,,,0.00,Wunderground v.1.15,2013-02-17 20:59:00,
2013-02-17 13:00:00,55.7,19.4,29.97,WNW,293,4.0,-999.0,24,0.00,,,0.00,Wunderground v.1.15,2013-02-17 21:00:00,
2013-02-17 13:05:00,55.3,17.0,29.97,NW,315,5.0,-999.0,22,0.00,,,0.00,Wunderground v.1.15,2013-02-17 21:05:00,
2013-02-17 13:10:00,55.3,17.0,29.97,NW,315,5.0,-999.0,22,0.00,,,0.00,Wunderground v.1.15,2013-02-17 21:10:00,
2013-02-17 13:15:00,55.4,18.2,29.96,WNW,293,5.0,-999.0,23,0.00,,,0.00,Wunderground v.1.15,2013-02-17 21:15:00,
2013-02-17 13:20:00,55.4,18.2,29.96,WNW,293,5.0,-999.0,23,0.00,,,0.00,Wunderground v.1.15,2013-02-17 21:20:00,
2013-02-17 13:25:00,55.3,19.1,29.96,NW,315,5.0,-999.0,24,0.00,,,0.00,Wunderground v.1.15,2013-02-17 21:25:00,
2013-02-17 13:29:00,55.3,19.1,29.96,WNW,303,5.0,5.0,24,0.00,,,0.00,Wunderground v.1.15,2013-02-17 21:29:00,
2013-02-17 13:30:00,55.3,19.1,29.96,NW,315,5.0,-999.0,24,0.00,,,0.00,Wunderground v.1.15,2013-02-17 21:30:00,
2013-02-17 13:35:00,55.8,20.5,29.96,NW,315,4.0,-999.0,25,0.00,,,0.00,Wunderground v.1.15,2013-02-17 21:35:00,
2013-02-17 13:40:00,55.8,20.5,29.96,NW,315,4.0,-999.0,25,0.00,,,0.00,Wunderground v.1.15,2013-02-17 21:40:00,
2013-02-17 13:45:00,55.9,21.5,29.95,WNW,293,4.0,-999.0,26,0.00,,,0.00,Wunderground v.1.15,2013-02-17 21:45:00,
2013-02-17 13:50:00,55.9,21.5,29.95,WNW,293,4.0,-999.0,26,0.00,,,0.00,Wunderground v.1.15,2013-02-17 21:50:00,
2013-02-17 13:55:00,56.0,24.2,29.95,WNW,293,4.0,-999.0,29,0.00,,,0.00,Wunderground v.1.15,2013-02-17 21:55:00,
2013-02-17 13:59:00,56.2,24.3,29.96,NW,319,4.0,25.0,29,0.00,,,0.00,Wunderground v.1.15,2013-02-17 21:59:00,
2013-02-17 14:00:00,56.0,24.2,29.95,WNW,293,4.0,-999.0,29,0.00,,,0.00,Wunderground v.1.15,2013-02-17 22:00:00,
2013-02-17 14:05:00,55.7,22.2,29.96,WNW,293,5.0,-999.0,27,0.00,,,0.00,Wunderground v.1.15,2013-02-17 22:05:00,
2013-02-17 14:10:00,55.7,22.2,29.96,WNW,293,5.0,-999.0,27,0.00,,,0.00,Wunderground v.1.15,2013-02-17 22:10:00,
2013-02-17 14:15:00,55.9,23.2,29.95,WNW,293,4.0,-999.0,28,0.00,,,0.00,Wunderground v.1.15,2013-02-17 22:15:00,
2013-02-17 14:20:00,55.9,23.2,29.95,WNW,293,4.0,-999.0,28,0.00,,,0.00,Wunderground v.1.15,2013-02-17 22:20:00,
2013-02-17 14:25:00,55.7,20.4,29.95,WNW,293,5.0,-999.0,25,0.00,,,0.00,Wunderground v.1.15,2013-02-17 22:25:00,
2013-02-17 14:29:00,55.6,21.2,29.95,NW,306,5.0,5.0,26,0.00,,,0.00,Wunderground v.1.15,2013-02-17 22:29:00,
2013-02-17 14:30:00,55.7,20.4,29.95,WNW,293,5.0,-999.0,25,0.00,,,0.00,Wunderground v.1.15,2013-02-17 22:30:00,
2013-02-17 14:35:00,55.7,21.3,29.95,NW,315,4.0,-999.0,26,0.00,,,0.00,Wunderground v.1.15,2013-02-17 22:35:00,
2013-02-17 14:40:00,55.7,21.3,29.95,NW,315,4.0,-999.0,26,0.00,,,0.00,Wunderground v.1.15,2013-02-17 22:40:00,
2013-02-17 14:45:00,55.6,21.2,29.96,WNW,293,4.0,-999.0,26,0.00,,,0.00,Wunderground v.1.15,2013-02-17 22:45:00,
2013-02-17 14:50:00,55.6,21.2,29.96,WNW,293,4.0,-999.0,26,0.00,,,0.00,Wunderground v.1.15,2013-02-17 22:50:00,
2013-02-17 14:55:00,55.1,22.5,29.96,NW,315,5.0,-999.0,28,0.00,,,0.00,Wunderground v.1.15,2013-02-17 22:55:00,
2013-02-17 14:59:00,55.2,23.5,29.96,NW,307,5.0,5.0,29,0.00,,,0.00,Wunderground v.1.15,2013-02-17 22:59:00,
2013-02-17 15:00:00,55.1,22.5,29.96,NW,315,5.0,-999.0,28,0.00,,,0.00,Wunderground v.1.15,2013-02-17 23:00:00,
2013-02-17 15:05:00,55.3,23.5,29.96,NW,315,4.0,-999.0,29,0.00,,,0.00,Wunderground v.1.15,2013-02-17 23:05:00,
2013-02-17 15:10:00,55.3,23.5,29.96,NW,315,4.0,-999.0,29,0.00,,,0.00,Wunderground v.1.15,2013-02-17 23:10:00,
2013-02-17 15:15:00,55.2,25.1,29.96,WNW,293,4.0,-999.0,31,0.00,,,0.00,Wunderground v.1.15,2013-02-17 23:15:00,
2013-02-17 15:20:00,55.2,25.1,29.96,WNW,293,4.0,-999.0,31,0.00,,,0.00,Wunderground v.1.15,2013-02-17 23:20:00,
2013-02-17 15:25:00,54.5,26.0,29.96,NW,315,5.0,-999.0,33,0.00,,,0.00,Wunderground v.1.15,2013-02-17 23:25:00,
2013-02-17 15:29:00,54.4,25.1,29.96,WNW,298,5.0,5.0,32,0.00,,,0.00,Wunderground v.1.15,2013-02-17 23:29:00,
2013-02-17 15:30:00,54.5,26.0,29.96,NW,315,5.0,-999.0,33,0.00,,,0.00,Wunderground v.1.15,2013-02-17 23:30:00,
2013-02-17 15:35:00,54.1,25.6,29.97,NW,315,4.0,-999.0,33,0.00,,,0.00,Wunderground v.1.15,2013-02-17 23:35:00,
2013-02-17 15:40:00,54.1,25.6,29.97,NW,315,4.0,-999.0,33,0.00,,,0.00,Wunderground v.1.15,2013-02-17 23:40:00,
2013-02-17 15:45:00,53.8,26.8,29.97,WNW,293,4.0,-999.0,35,0.00,,,0.00,Wunderground v.1.15,2013-02-17 23:45:00,
2013-02-17 15:59:00,53.3,27.0,29.96,WNW,295,5.0,5.0,36,0.00,,,0.00,Wunderground v.1.15,2013-02-17 23:59:00,
2013-02-17 16:29:00,52.6,30.1,29.97,WNW,293,3.0,25.0,42,0.00,,,0.00,Wunderground v.1.15,2013-02-18 00:29:00,
2013-02-17 16:59:00,50.2,31.8,29.97,WNW,293,4.0,4.0,49,0.00,,,0.00,Wunderground v.1.15,2013-02-18 00:59:00,
2013-02-17 17:29:00,47.5,33.0,29.98,WNW,303,3.0,3.0,57,0.00,,,0.00,Wunderground v.1.15,2013-02-18 01:29:00,
2013-02-17 18:00:00,44.6,32.0,29.99,WNW,293,1.0,25.0,61,0.00,,,0.00,Wunderground v.1.15,2013-02-18 02:00:00,
2013-02-17 18:30:00,41.1,31.0,30.00,WNW,299,0.0,25.0,67,0.00,,,0.00,Wunderground v.1.15,2013-02-18 02:30:00,
2013-02-17 19:00:00,36.8,29.9,30.00,WNW,298,0.0,25.0,76,0.00,,,0.00,Wunderground v.1.15,2013-02-18 03:00:00,
2013-02-17 19:29:00,34.5,28.7,30.01,NW,309,0.0,25.0,79,0.00,,,0.00,Wunderground v.1.15,2013-02-18 03:29:00,
2013-02-17 19:59:00,32.8,27.3,30.02,East,94,0.0,25.0,80,0.00,,,0.00,Wunderground v.1.15,2013-02-18 03:59:00,
2013-02-17 20:29:00,31.4,27.1,30.02,East,80,0.0,25.0,84,0.00,,,0.00,Wunderground v.1.15,2013-02-18 04:29:00,
2013-02-17 20:59:00,30.9,26.6,30.03,East,82,0.0,25.0,84,0.00,,,0.00,Wunderground v.1.15,2013-02-18 04:59:00,
2013-02-17 21:29:00,31.2,25.4,30.05,NNE,30,0.0,25.0,79,0.00,,,0.00,Wunderground v.1.15,2013-02-18 05:29:00,
2013-02-17 21:59:00,29.9,24.5,30.06,East,90,1.0,25.0,80,0.00,,,0.00,Wunderground v.1.15,2013-02-18 05:59:00,
2013-02-17 22:29:00,29.2,23.8,30.07,East,85,1.0,1.0,80,0.00,,,0.00,Wunderground v.1.15,2013-02-18 06:29:00,
2013-02-17 22:59:00,29.1,23.4,30.07,East,82,0.0,25.0,79,0.00,,,0.00,Wunderground v.1.15,2013-02-18 06:59:00,
2013-02-17 23:29:00,28.7,23.0,30.07,East,83,0.0,25.0,79,0.00,,,0.00,Wunderground v.1.15,2013-02-18 07:29:00,
2013-02-17 23:59:00,28.9,24.1,30.07,East,86,1.0,25.0,82,0.00,,,0.00,Wunderground v.1.15,2013-02-18 07:59:00,